»·PEaware :: N664NT KJFK-KEWR

N664NT :: KJFK-KEWR

FLIGHT INFORMATION

Flight Status: Arrived
Operator: Privately registered:
United States
More flights under this callsign
Pilot: Anonymous 328 (328)
Aircraft: Unknown
(GA7C)
More flights by this aircraft type
Origin: KJFK Kennedy Intl
United States
Destination: KEWR Newark Intl
United States
More flights between these airports :: More routes between these airports
Route: JFK5 V16 DIXIE V276 RBV V249 SBJ
File this flight plan on PilotEdge
Remarks:
Altitude:
(Current/Filed)
6,000ft
Speed:
(Current/Filed)
0kts
Departed: 10-May-23 05:50 AM
Arrived: 10-May-23 07:01 AM
Distance/Time
Traveled:
18nm/1:11
Distance/Time
To Go:
Arrived

Flight Plot

Page will automatically refresh every two minutes.

Flight plan parsing failed; only flown route is shown


Map Options




Map Legend


Flown Route
Filed Route
Departure Airport
Arrival Airport
Navaid (VOR, NDB)
Fix

Horizontal Profiles

Position Reports

Time Latitude Longitude Heading Altitude Ground
Speed
10-May-23 05:10 40.650547 -73.811073 225 20ft 0kts
10-May-23 05:11 40.650547 -73.811073 225 20ft 0kts
10-May-23 05:12 40.650547 -73.811073 225 20ft 0kts
10-May-23 05:13 40.650547 -73.811073 225 20ft 0kts
10-May-23 05:14 40.650547 -73.811073 225 20ft 0kts
10-May-23 05:15 40.650547 -73.811073 225 20ft 0kts
10-May-23 05:16 40.650547 -73.811073 225 20ft 0kts
10-May-23 05:17 40.650547 -73.811073 225 20ft 0kts
10-May-23 05:18 40.650547 -73.811073 225 20ft 0kts
10-May-23 05:19 40.650547 -73.811073 225 20ft 0kts
10-May-23 05:20 40.650547 -73.811073 225 20ft 0kts
10-May-23 05:21 40.650547 -73.811073 225 20ft 0kts
10-May-23 05:22 40.650547 -73.811073 225 20ft 0kts
10-May-23 05:23 40.650547 -73.811073 225 20ft 0kts
10-May-23 05:24 40.650547 -73.811073 225 20ft 0kts
10-May-23 05:25 40.650547 -73.811073 225 20ft 0kts
10-May-23 05:26 40.650547 -73.811073 225 20ft 0kts
10-May-23 05:27 40.650547 -73.811073 225 20ft 0kts
10-May-23 05:29 40.650547 -73.811073 225 20ft 0kts
10-May-23 05:30 40.650547 -73.811073 225 20ft 0kts
10-May-23 05:31 40.650547 -73.811073 225 20ft 0kts
10-May-23 05:32 40.650547 -73.811073 225 20ft 0kts
10-May-23 05:33 40.650547 -73.811073 225 20ft 0kts
10-May-23 05:34 40.650547 -73.811073 225 20ft 0kts
10-May-23 05:35 40.650547 -73.811073 225 20ft 0kts
10-May-23 05:36 40.650547 -73.811073 225 20ft 0kts
10-May-23 05:37 40.650547 -73.811073 225 20ft 0kts
10-May-23 05:38 40.650547 -73.811073 225 20ft 0kts
10-May-23 05:39 40.650547 -73.811073 225 20ft 0kts
10-May-23 05:40 40.650547 -73.811073 225 20ft 0kts
10-May-23 05:41 40.650547 -73.811073 225 20ft 0kts
10-May-23 05:42 40.650547 -73.811073 225 20ft 0kts
10-May-23 05:43 40.650547 -73.811073 225 20ft 0kts
10-May-23 05:44 40.650547 -73.811073 225 20ft 0kts
10-May-23 05:45 40.650547 -73.811073 225 20ft 0kts
10-May-23 05:46 40.650352 -73.811264 208 20ft 10kts
10-May-23 05:47 40.649624 -73.813522 300 21ft 19kts
10-May-23 05:48 40.649433 -73.815659 210 21ft 0kts
10-May-23 05:49 40.648106 -73.816116 122 21ft 0kts
10-May-23 05:50 40.637783 -73.793045 118 719ft 199kts
10-May-23 05:51 40.604984 -73.718559 120 4390ft 264kts
10-May-23 05:52 40.561825 -73.638504 152 5972ft 269kts
10-May-23 05:53 40.499264 -73.676834 225 6003ft 272kts
10-May-23 05:54 40.444111 -73.744637 223 6004ft 272kts
10-May-23 05:54 40.397923 -73.801254 223 6001ft 272kts
10-May-23 05:55 40.342487 -73.869087 222 6001ft 272kts
10-May-23 05:56 40.287010 -73.936798 222 6004ft 272kts
10-May-23 05:58 40.276569 -74.040062 287 6005ft 272kts
10-May-23 05:59 40.298424 -74.134178 286 5317ft 265kts
10-May-23 05:59 40.315510 -74.210472 286 3930ft 250kts
10-May-23 06:00 40.334629 -74.298775 284 3991ft 250kts
10-May-23 06:01 40.354843 -74.380554 287 4002ft 232kts
10-May-23 06:02 40.374088 -74.461830 287 4003ft 232kts
10-May-23 06:03 40.393116 -74.542923 287 4001ft 233kts
10-May-23 06:04 40.418091 -74.619682 330 4000ft 233kts
10-May-23 06:05 40.460625 -74.578178 77 4002ft 232kts
10-May-23 06:06 40.474915 -74.495003 77 4004ft 233kts
10-May-23 06:07 40.489265 -74.412125 77 4004ft 233kts
10-May-23 06:08 40.503300 -74.331436 77 3646ft 202kts
10-May-23 06:09 40.514214 -74.268669 77 3005ft 167kts
10-May-23 06:10 40.549629 -74.251038 8 2763ft 166kts
10-May-23 06:11 40.592419 -74.228653 25 1899ft 164kts
10-May-23 06:12 40.630772 -74.204155 26 1029ft 135kts
10-May-23 06:13 40.663731 -74.183418 24 437ft 129kts
10-May-23 06:14 40.698700 -74.155899 48 1232ft 162kts
10-May-23 06:15 40.736198 -74.103127 45 2892ft 207kts
10-May-23 06:16 40.790810 -74.081680 14 3004ft 208kts
10-May-23 06:17 40.827545 -74.119911 276 3998ft 211kts
10-May-23 06:18 40.834644 -74.197235 276 4003ft 211kts
10-May-23 06:19 40.801720 -74.251244 206 4004ft 211kts
10-May-23 06:20 40.749329 -74.286430 207 4002ft 211kts
10-May-23 06:21 40.696774 -74.321777 207 3879ft 211kts
10-May-23 06:22 40.644657 -74.356857 207 3064ft 208kts
10-May-23 06:23 40.593056 -74.391617 207 3001ft 208kts
10-May-23 06:24 40.551781 -74.370605 117 3005ft 188kts
10-May-23 06:25 40.530087 -74.308380 86 2994ft 188kts
10-May-23 06:26 40.555836 -74.253677 34 2213ft 166kts
10-May-23 06:27 40.598366 -74.224922 25 1772ft 174kts
10-May-23 06:28 40.635426 -74.201233 25 1003ft 130kts
10-May-23 06:29 40.668030 -74.180412 25 322ft 129kts
10-May-23 06:30 40.704216 -74.157433 28 804ft 150kts
10-May-23 06:31 40.740936 -74.110237 52 1519ft 204kts
10-May-23 06:32 40.797253 -74.081146 19 4019ft 276kts
10-May-23 06:33 40.857449 -74.085159 300 4016ft 233kts
10-May-23 06:34 40.862236 -74.169113 241 4006ft 233kts
10-May-23 06:35 40.807270 -74.212494 206 4003ft 233kts
10-May-23 06:36 40.752686 -74.258324 217 4001ft 233kts
10-May-23 06:37 40.700760 -74.309120 217 4000ft 233kts
10-May-23 06:38 40.648663 -74.360054 217 4002ft 232kts
10-May-23 06:39 40.596588 -74.411011 217 4003ft 233kts
10-May-23 06:40 40.544727 -74.461792 217 4003ft 232kts
10-May-23 06:41 40.492645 -74.512611 212 4000ft 232kts
10-May-23 06:42 40.448971 -74.480476 89 3425ft 193kts
10-May-23 06:43 40.474667 -74.421768 55 3002ft 188kts
10-May-23 06:44 40.495548 -74.359390 74 3001ft 188kts
10-May-23 06:45 40.510712 -74.293510 74 3001ft 187kts
10-May-23 06:46 40.547916 -74.256226 27 2503ft 175kts
10-May-23 06:47 40.589108 -74.230156 26 1920ft 164kts
10-May-23 06:48 40.630283 -74.204048 27 1700ft 164kts
10-May-23 06:49 40.671459 -74.177910 27 1815ft 163kts
10-May-23 06:50 40.712669 -74.151321 34 2995ft 166kts
10-May-23 06:51 40.754963 -74.160088 286 3504ft 258kts
10-May-23 06:52 40.750340 -74.252663 223 4005ft 264kts
10-May-23 06:53 40.686039 -74.297760 207 3602ft 253kts
10-May-23 06:54 40.628353 -74.336014 207 3003ft 208kts
10-May-23 06:55 40.575089 -74.363594 167 2803ft 205kts
10-May-23 06:56 40.545773 -74.307999 117 2011ft 185kts
10-May-23 06:57 40.562370 -74.252502 37 2006ft 185kts
10-May-23 06:58 40.607113 -74.218742 27 1643ft 187kts
10-May-23 06:59 40.653637 -74.189354 26 659ft 184kts
10-May-23 07:00 40.690514 -74.166031 23 19ft 11kts
10-May-23 07:01 40.693783 -74.166138 327 19ft 12kts
10-May-23 07:02 40.694855 -74.168594 198 19ft 1kts

Navigation Log

Ident Type
Flight plan parsing failed, navigation log unavailable